Terminal Aerodrome Forecast
Issued by NWS

Home | Current Version | Previous Version | Text Only | Print | Product List | Glossary On
Versions: 1 2 3 4 5 6 7 8 9 10 11 12 13 14
484
FTUS43 KEAX 122324
TAFMKC
TAF
KMKC 122324Z 1300/1324 01010KT P6SM FEW150
     FM130500 04010KT P6SM BKN120
     FM131400 10010KT P6SM OVC060=

USA.gov is the U.S. government's official web portal to all federal, state and local government web resources and services.